Slater, MO (65349)

10:26 PM CDT on July 04, 2015 (GMT -0500)
KMMO Radio, Marshall, Missouri | | Change Station
CLOSE
Current Station
Personal Weather Station
Location: Marshall, MO
Elevation: 791 ft
Nearby Weather Stations
Active Advisory: Flood Warning

Elev 791 ft 39.13 °N, 93.22 °W | Updated 2 seconds ago

Clear
Clear
73.0 °F
Feels Like 74 °F
N
5.0
Wind Variable Wind from East
Gusts 10.0 mph

Today
High -- | Low -- °F
--% Chance of Precip.
Yesterday
High -- | Low -- °F
Precip. -- in
5:51 AM 8:42 PM
Waning Gibbous, 88% visible
Pressure 30.00 in
Visibility 10.0 miles
Clouds Clear
Heat Index 74 °F
Dew Point 64 °F
Humidity 74%
Rainfall 0.00 in
Snow Depth Not available.
UV 0 out of 12
Pollen 3.70 out of 12
Air Quality Not available.
Flu Activity Not available.
METAR KVER 050315Z AUTO 12003KT 10SM CLR 22/18 A3000 RMK AO2 T02170184

More Conditions Fewer Conditions

Pressure 30.00 in
Visibility 10.0 miles
Clouds Clear
Heat Index 74 °F
Dew Point 64 °F
Humidity 74%
Rainfall 0.00 in
Snow Depth Not available.
UV 0 out of 12
Pollen 3.70 out of 12
Air Quality Not available.
Flu Activity Not available.
METAR KVER 050315Z AUTO 12003KT 10SM CLR 22/18 A3000 RMK AO2 T02170184

More Conditions Fewer Conditions

10-Day Weather Forecast

×

Almanac

Astronomy

Jul. 04, 2015 Rise Set
Actual Time
Civil Twilight
Nautical Twilight
Astronomical Twilight
Moon
Length of Visible Light
Length of Day
Tomorrow will be .
, % of the Moon is Illuminated

Today's Extremes

State Highs State Lows

Community

WunderPhotos

Upload Photos

1,835,182 photos uploaded!

WunderBlogs® & News

Nearby

Air Quality

  Air Quality AQ Index Pollutant
Not available.

Snow Depth

Station Depth Elevation

Earthquake Activity

City Distance Mag. Time & Date
Minimum magnitude displayed is 2.5.

Coastal Water Temperatures

Place Temperature

Stations

Nearby Weather Stations

Station Location Temp. Windchill Dew Point Humidity Wind Precip. Elev Updated Type
                   
Flood Warning
Statement as of 7:50 PM CDT on July 04, 2015

The Flood Warning continues for
the Blackwater river near Blue Lick.
* Until Monday evening.
* At 6:45 PM Saturday the stage was 29.5 feet.
* Flood stage is 24.0 feet.
* Moderate flooding is occurring and moderate flooding is forecast.
* Forecast... the river will continue to fall to below flood stage by
Sunday before midnight.
* At 29.0 feet... livestock in pastures along the river may be
endangered. Extensive damage also occurs to cropland and pasture.
* At 24.0 feet... cropland and pastures along the river flood.

                       Latest
location fs stage day/time forecast

Blackwater river
Blue Lick 24 29.5 Sat 07 PM 29.5 early Sunday morning


lat... Lon 3894 9342 3899 9348 3903 9297 3894 9295 3893 9323